Columbus, NE

12:52 AM CDT on July 01, 2015 (GMT -0500)
Local Weather Plus | | Change Station
CLOSE
Current Station
Personal Weather Station
Location: Columbus, NE
Elevation: 1457 ft
Nearby Weather Stations

Elev 1457 ft 41.45 °N, 97.39 °W | Updated 30 seconds ago

Overcast
Overcast
69.0 °F
Feels Like 69.0 °F
N
23.0
Wind Variable Wind from ESE
Gusts 23.0 mph

Today
High -- | Low -- °F
--% Chance of Precip.
Yesterday
High -- | Low -- °F
Precip. -- in
5:59 AM 9:07 PM
Waxing Gibbous, 99% visible
Pressure 29.87 in
Visibility 6.0 miles
Clouds Few 3400 ft
Mostly Cloudy 9000 ft
Mostly Cloudy 12000 ft
Dew Point 64 °F
Humidity 83%
Rainfall 0.00 in
Snow Depth Not available.
UV 0.0 out of 12
Pollen 5.20 out of 12
Air Quality Not available.
Flu Activity Not available.
METAR KOFK 010456Z AUTO 14012KT 6SM -RA BR FEW034 BKN090 BKN120 20/18 A2989 RMK AO2 LTG DSNT S TSE03 SLP113 P0001 T02000183

More Conditions Fewer Conditions

Pressure 29.87 in
Visibility 6.0 miles
Clouds Few 3400 ft
Mostly Cloudy 9000 ft
Mostly Cloudy 12000 ft
Dew Point 64 °F
Humidity 83%
Rainfall 0.00 in
Snow Depth Not available.
UV 0.0 out of 12
Pollen 5.20 out of 12
Air Quality Not available.
Flu Activity Not available.
METAR KOFK 010456Z AUTO 14012KT 6SM -RA BR FEW034 BKN090 BKN120 20/18 A2989 RMK AO2 LTG DSNT S TSE03 SLP113 P0001 T02000183

More Conditions Fewer Conditions

10-Day Weather Forecast

×

Almanac

Astronomy

Jul. 01, 2015 Rise Set
Actual Time
Civil Twilight
Nautical Twilight
Astronomical Twilight
Moon
Length of Visible Light
Length of Day
Tomorrow will be .
, % of the Moon is Illuminated

Today's Extremes

State Highs State Lows

Community

WunderPhotos

Upload Photos

1,834,155 photos uploaded!

WunderBlogs® & News

Nearby

Air Quality

  Air Quality AQ Index Pollutant
Not available.

Snow Depth

Station Depth Elevation

Earthquake Activity

City Distance Mag. Time & Date
Minimum magnitude displayed is 2.5.

Coastal Water Temperatures

Place Temperature

Stations

Nearby Weather Stations

Station Location Temp. Windchill Dew Point Humidity Wind Precip. Elev Updated Type